sensor_id;sensor_type;location;lat;lon;timestamp;P1;durP1;ratioP1;P2;durP2;ratioP2
41653;SDS011;30790;52.030;7.110;2022-07-29T00:01:15;3.90;;;1.08;;
41653;SDS011;30790;52.030;7.110;2022-07-29T00:03:41;5.53;;;1.00;;
41653;SDS011;30790;52.030;7.110;2022-07-29T00:06:07;2.45;;;1.08;;
41653;SDS011;30790;52.030;7.110;2022-07-29T00:08:32;3.65;;;1.42;;
41653;SDS011;30790;52.030;7.110;2022-07-29T00:10:57;3.78;;;1.10;;
41653;SDS011;30790;52.030;7.110;2022-07-29T00:13:23;2.45;;;0.88;;
41653;SDS011;30790;52.030;7.110;2022-07-29T00:15:48;5.97;;;1.30;;
41653;SDS011;30790;52.030;7.110;2022-07-29T00:18:13;1.55;;;0.85;;
41653;SDS011;30790;52.030;7.110;2022-07-29T00:20:38;2.50;;;1.05;;
41653;SDS011;30790;52.030;7.110;2022-07-29T00:23:04;1.65;;;1.00;;
41653;SDS011;30790;52.030;7.110;2022-07-29T00:25:29;1.00;;;0.90;;
41653;SDS011;30790;52.030;7.110;2022-07-29T00:27:54;3.20;;;1.13;;
41653;SDS011;30790;52.030;7.110;2022-07-29T00:30:20;3.60;;;1.30;;
41653;SDS011;30790;52.030;7.110;2022-07-29T00:32:45;4.57;;;1.25;;
41653;SDS011;30790;52.030;7.110;2022-07-29T00:35:10;2.90;;;0.95;;
41653;SDS011;30790;52.030;7.110;2022-07-29T00:37:54;5.38;;;2.28;;
41653;SDS011;30790;52.030;7.110;2022-07-29T00:40:20;2.92;;;1.10;;
41653;SDS011;30790;52.030;7.110;2022-07-29T00:42:46;1.70;;;0.82;;
41653;SDS011;30790;52.030;7.110;2022-07-29T00:45:13;2.70;;;1.05;;
41653;SDS011;30790;52.030;7.110;2022-07-29T00:47:39;1.75;;;0.82;;
41653;SDS011;30790;52.030;7.110;2022-07-29T00:50:05;2.22;;;1.27;;
41653;SDS011;30790;52.030;7.110;2022-07-29T00:52:32;1.52;;;1.00;;
41653;SDS011;30790;52.030;7.110;2022-07-29T00:54:58;2.83;;;1.00;;
41653;SDS011;30790;52.030;7.110;2022-07-29T00:57:24;1.80;;;1.00;;
41653;SDS011;30790;52.030;7.110;2022-07-29T00:59:49;4.25;;;1.00;;
41653;SDS011;30790;52.030;7.110;2022-07-29T01:02:15;2.33;;;1.20;;
41653;SDS011;30790;52.030;7.110;2022-07-29T01:04:40;1.50;;;0.80;;
41653;SDS011;30790;52.030;7.110;2022-07-29T01:07:06;2.22;;;0.98;;
41653;SDS011;30790;52.030;7.110;2022-07-29T01:09:32;2.78;;;1.10;;
41653;SDS011;30790;52.030;7.110;2022-07-29T01:11:58;2.88;;;1.25;;
41653;SDS011;30790;52.030;7.110;2022-07-29T01:14:25;3.35;;;1.50;;
41653;SDS011;30790;52.030;7.110;2022-07-29T01:16:51;1.70;;;1.20;;
41653;SDS011;30790;52.030;7.110;2022-07-29T01:25:41;2.63;;;1.23;;
41653;SDS011;30790;52.030;7.110;2022-07-29T01:31:03;2.15;;;0.80;;
41653;SDS011;30790;52.030;7.110;2022-07-29T01:33:30;3.42;;;0.77;;
41653;SDS011;30790;52.030;7.110;2022-07-29T01:36:18;1.40;;;0.90;;
41653;SDS011;30790;52.030;7.110;2022-07-29T01:38:51;1.27;;;0.68;;
41653;SDS011;30790;52.030;7.110;2022-07-29T01:41:56;1.02;;;0.80;;
41653;SDS011;30790;52.030;7.110;2022-07-29T01:44:37;2.65;;;1.00;;
41653;SDS011;30790;52.030;7.110;2022-07-29T01:47:11;1.65;;;0.93;;
41653;SDS011;30790;52.030;7.110;2022-07-29T01:49:40;1.80;;;1.10;;
41653;SDS011;30790;52.030;7.110;2022-07-29T01:52:18;1.95;;;0.90;;
41653;SDS011;30790;52.030;7.110;2022-07-29T01:54:53;2.72;;;1.13;;
41653;SDS011;30790;52.030;7.110;2022-07-29T01:57:25;2.28;;;1.02;;
41653;SDS011;30790;52.030;7.110;2022-07-29T01:59:54;2.33;;;0.98;;
41653;SDS011;30790;52.030;7.110;2022-07-29T02:02:22;1.52;;;1.00;;
41653;SDS011;30790;52.030;7.110;2022-07-29T02:04:48;0.90;;;0.73;;
41653;SDS011;30790;52.030;7.110;2022-07-29T02:07:17;2.47;;;0.90;;
41653;SDS011;30790;52.030;7.110;2022-07-29T02:09:44;2.72;;;0.93;;
41653;SDS011;30790;52.030;7.110;2022-07-29T02:12:10;1.90;;;0.90;;
41653;SDS011;30790;52.030;7.110;2022-07-29T02:14:40;3.28;;;0.90;;
41653;SDS011;30790;52.030;7.110;2022-07-29T02:17:10;1.48;;;0.90;;
41653;SDS011;30790;52.030;7.110;2022-07-29T02:19:38;1.15;;;0.90;;
41653;SDS011;30790;52.030;7.110;2022-07-29T02:22:06;3.05;;;1.02;;
41653;SDS011;30790;52.030;7.110;2022-07-29T02:24:36;3.03;;;1.17;;
41653;SDS011;30790;52.030;7.110;2022-07-29T02:27:05;3.58;;;1.13;;
41653;SDS011;30790;52.030;7.110;2022-07-29T02:29:32;1.00;;;0.80;;
41653;SDS011;30790;52.030;7.110;2022-07-29T02:31:58;1.02;;;0.70;;
41653;SDS011;30790;52.030;7.110;2022-07-29T02:34:25;1.48;;;0.82;;
41653;SDS011;30790;52.030;7.110;2022-07-29T02:36:53;2.17;;;0.85;;
41653;SDS011;30790;52.030;7.110;2022-07-29T02:39:20;0.90;;;0.80;;
41653;SDS011;30790;52.030;7.110;2022-07-29T02:41:48;1.20;;;0.57;;
41653;SDS011;30790;52.030;7.110;2022-07-29T02:44:20;1.70;;;0.93;;
41653;SDS011;30790;52.030;7.110;2022-07-29T02:52:43;1.33;;;0.77;;
41653;SDS011;30790;52.030;7.110;2022-07-29T02:57:44;1.63;;;1.13;;
41653;SDS011;30790;52.030;7.110;2022-07-29T03:00:13;0.73;;;0.70;;
41653;SDS011;30790;52.030;7.110;2022-07-29T03:02:40;0.82;;;0.82;;
41653;SDS011;30790;52.030;7.110;2022-07-29T03:05:10;1.92;;;0.90;;
41653;SDS011;30790;52.030;7.110;2022-07-29T03:07:45;1.73;;;0.80;;
41653;SDS011;30790;52.030;7.110;2022-07-29T03:10:12;1.77;;;0.80;;
41653;SDS011;30790;52.030;7.110;2022-07-29T03:12:38;2.30;;;0.75;;
41653;SDS011;30790;52.030;7.110;2022-07-29T03:15:04;1.38;;;0.88;;
41653;SDS011;30790;52.030;7.110;2022-07-29T03:17:31;0.80;;;0.70;;
41653;SDS011;30790;52.030;7.110;2022-07-29T03:19:57;0.80;;;0.80;;
41653;SDS011;30790;52.030;7.110;2022-07-29T03:22:23;2.58;;;0.90;;
41653;SDS011;30790;52.030;7.110;2022-07-29T03:24:49;2.90;;;0.90;;
41653;SDS011;30790;52.030;7.110;2022-07-29T03:27:14;2.72;;;0.88;;
41653;SDS011;30790;52.030;7.110;2022-07-29T03:29:39;4.20;;;1.02;;
41653;SDS011;30790;52.030;7.110;2022-07-29T03:32:06;1.27;;;0.80;;
41653;SDS011;30790;52.030;7.110;2022-07-29T03:34:31;0.90;;;0.80;;
41653;SDS011;30790;52.030;7.110;2022-07-29T03:36:57;2.53;;;0.80;;
41653;SDS011;30790;52.030;7.110;2022-07-29T03:39:23;1.50;;;0.90;;
41653;SDS011;30790;52.030;7.110;2022-07-29T03:41:53;1.20;;;0.82;;
41653;SDS011;30790;52.030;7.110;2022-07-29T03:44:20;1.50;;;0.80;;
41653;SDS011;30790;52.030;7.110;2022-07-29T03:46:48;0.98;;;0.70;;
41653;SDS011;30790;52.030;7.110;2022-07-29T03:49:15;2.38;;;1.42;;
41653;SDS011;30790;52.030;7.110;2022-07-29T03:51:42;0.73;;;0.73;;
41653;SDS011;30790;52.030;7.110;2022-07-29T03:54:08;1.55;;;0.82;;
41653;SDS011;30790;52.030;7.110;2022-07-29T03:56:34;3.20;;;0.82;;
41653;SDS011;30790;52.030;7.110;2022-07-29T03:59:03;1.52;;;0.65;;
41653;SDS011;30790;52.030;7.110;2022-07-29T04:01:29;0.95;;;0.90;;
41653;SDS011;30790;52.030;7.110;2022-07-29T04:03:57;2.08;;;0.85;;
41653;SDS011;30790;52.030;7.110;2022-07-29T04:06:23;1.85;;;0.70;;
41653;SDS011;30790;52.030;7.110;2022-07-29T04:08:48;1.58;;;0.70;;
41653;SDS011;30790;52.030;7.110;2022-07-29T04:11:13;5.97;;;1.17;;
41653;SDS011;30790;52.030;7.110;2022-07-29T04:13:38;4.38;;;1.00;;
41653;SDS011;30790;52.030;7.110;2022-07-29T04:16:04;1.92;;;0.80;;
41653;SDS011;30790;52.030;7.110;2022-07-29T04:18:29;0.85;;;0.70;;
41653;SDS011;30790;52.030;7.110;2022-07-29T04:20:54;1.50;;;0.93;;
41653;SDS011;30790;52.030;7.110;2022-07-29T04:23:20;1.33;;;0.90;;
41653;SDS011;30790;52.030;7.110;2022-07-29T04:25:45;1.75;;;1.00;;
41653;SDS011;30790;52.030;7.110;2022-07-29T04:28:10;2.85;;;0.63;;
41653;SDS011;30790;52.030;7.110;2022-07-29T04:30:36;1.85;;;0.75;;
41653;SDS011;30790;52.030;7.110;2022-07-29T04:33:03;2.65;;;1.00;;
41653;SDS011;30790;52.030;7.110;2022-07-29T04:35:30;2.97;;;0.82;;
41653;SDS011;30790;52.030;7.110;2022-07-29T04:37:59;2.83;;;1.02;;
41653;SDS011;30790;52.030;7.110;2022-07-29T04:40:25;1.25;;;0.90;;
41653;SDS011;30790;52.030;7.110;2022-07-29T04:42:50;2.10;;;0.85;;
41653;SDS011;30790;52.030;7.110;2022-07-29T04:45:15;2.05;;;1.38;;
41653;SDS011;30790;52.030;7.110;2022-07-29T04:47:41;6.18;;;1.17;;
41653;SDS011;30790;52.030;7.110;2022-07-29T04:50:06;2.85;;;1.30;;
41653;SDS011;30790;52.030;7.110;2022-07-29T04:52:33;5.55;;;1.73;;
41653;SDS011;30790;52.030;7.110;2022-07-29T04:54:59;6.75;;;1.50;;
41653;SDS011;30790;52.030;7.110;2022-07-29T04:57:25;3.92;;;1.15;;
41653;SDS011;30790;52.030;7.110;2022-07-29T04:59:50;4.10;;;1.20;;
41653;SDS011;30790;52.030;7.110;2022-07-29T05:02:15;6.90;;;1.75;;
41653;SDS011;30790;52.030;7.110;2022-07-29T05:04:41;4.93;;;1.60;;
41653;SDS011;30790;52.030;7.110;2022-07-29T05:07:06;6.97;;;1.58;;
41653;SDS011;30790;52.030;7.110;2022-07-29T05:09:31;3.72;;;1.40;;
41653;SDS011;30790;52.030;7.110;2022-07-29T05:11:57;8.30;;;1.58;;
41653;SDS011;30790;52.030;7.110;2022-07-29T05:14:22;4.85;;;1.23;;
41653;SDS011;30790;52.030;7.110;2022-07-29T05:16:48;4.13;;;1.35;;
41653;SDS011;30790;52.030;7.110;2022-07-29T05:19:15;3.92;;;1.30;;
41653;SDS011;30790;52.030;7.110;2022-07-29T05:21:41;8.10;;;1.73;;
41653;SDS011;30790;52.030;7.110;2022-07-29T05:24:06;5.18;;;1.52;;
41653;SDS011;30790;52.030;7.110;2022-07-29T05:26:32;3.80;;;1.40;;
41653;SDS011;30790;52.030;7.110;2022-07-29T05:28:57;4.90;;;1.67;;
41653;SDS011;30790;52.030;7.110;2022-07-29T05:31:22;9.05;;;2.10;;
41653;SDS011;30790;52.030;7.110;2022-07-29T05:33:48;3.33;;;1.40;;
41653;SDS011;30790;52.030;7.110;2022-07-29T05:36:13;4.13;;;1.30;;
41653;SDS011;30790;52.030;7.110;2022-07-29T05:38:38;4.35;;;1.85;;
41653;SDS011;30790;52.030;7.110;2022-07-29T05:41:04;4.18;;;1.70;;
41653;SDS011;30790;52.030;7.110;2022-07-29T05:43:30;3.50;;;1.58;;
41653;SDS011;30790;52.030;7.110;2022-07-29T05:45:55;4.68;;;1.67;;
41653;SDS011;30790;52.030;7.110;2022-07-29T05:48:21;5.95;;;1.60;;
41653;SDS011;30790;52.030;7.110;2022-07-29T05:50:47;6.30;;;1.40;;
41653;SDS011;30790;52.030;7.110;2022-07-29T05:53:13;9.63;;;2.45;;
41653;SDS011;30790;52.030;7.110;2022-07-29T05:55:38;6.88;;;1.98;;
41653;SDS011;30790;52.030;7.110;2022-07-29T05:58:03;8.35;;;2.38;;
41653;SDS011;30790;52.030;7.110;2022-07-29T06:00:28;4.90;;;1.85;;
41653;SDS011;30790;52.030;7.110;2022-07-29T06:02:55;11.27;;;2.00;;
41653;SDS011;30790;52.030;7.110;2022-07-29T06:05:20;4.57;;;2.10;;
41653;SDS011;30790;52.030;7.110;2022-07-29T06:07:45;7.68;;;2.08;;
41653;SDS011;30790;52.030;7.110;2022-07-29T06:10:11;4.22;;;1.88;;
41653;SDS011;30790;52.030;7.110;2022-07-29T06:12:36;5.90;;;1.90;;
41653;SDS011;30790;52.030;7.110;2022-07-29T06:15:01;5.40;;;2.25;;
41653;SDS011;30790;52.030;7.110;2022-07-29T06:17:27;8.15;;;1.95;;
41653;SDS011;30790;52.030;7.110;2022-07-29T06:19:52;5.38;;;2.15;;
41653;SDS011;30790;52.030;7.110;2022-07-29T06:22:18;6.80;;;2.47;;
41653;SDS011;30790;52.030;7.110;2022-07-29T06:24:43;3.45;;;2.08;;
41653;SDS011;30790;52.030;7.110;2022-07-29T06:27:12;6.07;;;2.33;;
41653;SDS011;30790;52.030;7.110;2022-07-29T06:29:37;7.38;;;2.55;;
41653;SDS011;30790;52.030;7.110;2022-07-29T06:32:03;5.45;;;2.08;;
41653;SDS011;30790;52.030;7.110;2022-07-29T06:34:28;4.07;;;2.10;;
41653;SDS011;30790;52.030;7.110;2022-07-29T06:36:54;5.18;;;2.30;;
41653;SDS011;30790;52.030;7.110;2022-07-29T06:39:19;3.67;;;1.90;;
41653;SDS011;30790;52.030;7.110;2022-07-29T06:41:48;14.23;;;3.15;;
41653;SDS011;30790;52.030;7.110;2022-07-29T06:44:15;5.75;;;2.10;;
41653;SDS011;30790;52.030;7.110;2022-07-29T06:46:41;6.80;;;2.65;;
41653;SDS011;30790;52.030;7.110;2022-07-29T06:49:06;12.68;;;2.92;;
41653;SDS011;30790;52.030;7.110;2022-07-29T06:51:32;14.68;;;2.97;;
41653;SDS011;30790;52.030;7.110;2022-07-29T06:53:58;12.40;;;2.47;;
41653;SDS011;30790;52.030;7.110;2022-07-29T06:56:23;13.70;;;2.67;;
41653;SDS011;30790;52.030;7.110;2022-07-29T06:58:49;8.13;;;2.92;;
41653;SDS011;30790;52.030;7.110;2022-07-29T07:01:15;10.20;;;2.30;;
41653;SDS011;30790;52.030;7.110;2022-07-29T07:03:40;10.85;;;2.78;;
41653;SDS011;30790;52.030;7.110;2022-07-29T07:06:06;10.27;;;2.45;;
41653;SDS011;30790;52.030;7.110;2022-07-29T07:08:32;8.07;;;2.95;;
41653;SDS011;30790;52.030;7.110;2022-07-29T07:10:58;7.18;;;2.63;;
41653;SDS011;30790;52.030;7.110;2022-07-29T07:13:23;7.30;;;2.42;;
41653;SDS011;30790;52.030;7.110;2022-07-29T07:15:49;7.82;;;2.15;;
41653;SDS011;30790;52.030;7.110;2022-07-29T07:18:15;8.55;;;2.25;;
41653;SDS011;30790;52.030;7.110;2022-07-29T07:20:41;5.30;;;2.08;;
41653;SDS011;30790;52.030;7.110;2022-07-29T07:23:07;5.80;;;2.00;;
41653;SDS011;30790;52.030;7.110;2022-07-29T07:25:32;3.97;;;1.67;;
41653;SDS011;30790;52.030;7.110;2022-07-29T07:27:58;4.18;;;2.05;;
41653;SDS011;30790;52.030;7.110;2022-07-29T07:30:23;8.20;;;2.80;;
41653;SDS011;30790;52.030;7.110;2022-07-29T07:32:49;5.90;;;2.10;;
41653;SDS011;30790;52.030;7.110;2022-07-29T07:35:14;8.63;;;1.85;;
41653;SDS011;30790;52.030;7.110;2022-07-29T07:37:39;6.05;;;2.55;;
41653;SDS011;30790;52.030;7.110;2022-07-29T07:40:06;7.78;;;2.15;;
41653;SDS011;30790;52.030;7.110;2022-07-29T07:42:32;7.13;;;1.90;;
41653;SDS011;30790;52.030;7.110;2022-07-29T07:44:57;4.45;;;1.73;;
41653;SDS011;30790;52.030;7.110;2022-07-29T07:47:23;11.05;;;2.72;;
41653;SDS011;30790;52.030;7.110;2022-07-29T07:49:49;7.70;;;1.80;;
41653;SDS011;30790;52.030;7.110;2022-07-29T07:52:15;6.57;;;2.28;;
41653;SDS011;30790;52.030;7.110;2022-07-29T07:54:42;6.32;;;1.80;;
41653;SDS011;30790;52.030;7.110;2022-07-29T07:57:08;6.65;;;2.05;;
41653;SDS011;30790;52.030;7.110;2022-07-29T07:59:34;10.30;;;2.28;;
41653;SDS011;30790;52.030;7.110;2022-07-29T08:01:59;6.68;;;2.05;;
41653;SDS011;30790;52.030;7.110;2022-07-29T08:04:25;7.10;;;2.15;;
41653;SDS011;30790;52.030;7.110;2022-07-29T08:06:51;10.00;;;2.30;;
41653;SDS011;30790;52.030;7.110;2022-07-29T08:09:19;13.35;;;2.60;;
41653;SDS011;30790;52.030;7.110;2022-07-29T08:11:45;25.60;;;3.45;;
41653;SDS011;30790;52.030;7.110;2022-07-29T08:14:10;14.52;;;2.58;;
41653;SDS011;30790;52.030;7.110;2022-07-29T08:16:35;15.23;;;2.92;;
41653;SDS011;30790;52.030;7.110;2022-07-29T08:19:00;12.75;;;2.78;;
41653;SDS011;30790;52.030;7.110;2022-07-29T08:21:26;16.23;;;2.95;;
41653;SDS011;30790;52.030;7.110;2022-07-29T08:23:51;12.55;;;2.50;;
41653;SDS011;30790;52.030;7.110;2022-07-29T08:26:43;9.07;;;2.83;;
41653;SDS011;30790;52.030;7.110;2022-07-29T08:29:08;12.38;;;2.88;;
41653;SDS011;30790;52.030;7.110;2022-07-29T08:31:34;10.10;;;2.45;;
41653;SDS011;30790;52.030;7.110;2022-07-29T08:34:00;13.10;;;2.58;;
41653;SDS011;30790;52.030;7.110;2022-07-29T08:36:27;8.85;;;2.30;;
41653;SDS011;30790;52.030;7.110;2022-07-29T08:38:53;13.18;;;3.33;;
41653;SDS011;30790;52.030;7.110;2022-07-29T08:41:19;17.58;;;3.50;;
41653;SDS011;30790;52.030;7.110;2022-07-29T08:43:45;7.70;;;2.58;;
41653;SDS011;30790;52.030;7.110;2022-07-29T08:46:12;15.20;;;2.58;;
41653;SDS011;30790;52.030;7.110;2022-07-29T08:48:37;19.92;;;3.00;;
41653;SDS011;30790;52.030;7.110;2022-07-29T08:51:04;22.38;;;2.55;;
41653;SDS011;30790;52.030;7.110;2022-07-29T08:53:31;11.40;;;3.00;;
41653;SDS011;30790;52.030;7.110;2022-07-29T08:55:57;22.35;;;3.33;;
41653;SDS011;30790;52.030;7.110;2022-07-29T08:58:24;26.95;;;4.28;;
41653;SDS011;30790;52.030;7.110;2022-07-29T09:00:53;17.55;;;3.58;;
41653;SDS011;30790;52.030;7.110;2022-07-29T09:03:20;12.98;;;2.97;;
41653;SDS011;30790;52.030;7.110;2022-07-29T09:05:48;11.23;;;3.13;;
41653;SDS011;30790;52.030;7.110;2022-07-29T09:08:15;15.73;;;3.17;;
41653;SDS011;30790;52.030;7.110;2022-07-29T09:10:41;9.07;;;2.28;;
41653;SDS011;30790;52.030;7.110;2022-07-29T09:13:07;8.82;;;2.22;;
41653;SDS011;30790;52.030;7.110;2022-07-29T09:15:33;12.60;;;2.38;;
41653;SDS011;30790;52.030;7.110;2022-07-29T09:17:58;14.30;;;2.55;;
41653;SDS011;30790;52.030;7.110;2022-07-29T09:20:25;18.73;;;2.60;;
41653;SDS011;30790;52.030;7.110;2022-07-29T09:22:52;6.25;;;2.10;;
41653;SDS011;30790;52.030;7.110;2022-07-29T09:25:37;12.75;;;2.17;;
41653;SDS011;30790;52.030;7.110;2022-07-29T09:30:33;8.85;;;2.08;;
41653;SDS011;30790;52.030;7.110;2022-07-29T09:32:59;19.38;;;2.97;;
41653;SDS011;30790;52.030;7.110;2022-07-29T09:35:26;17.95;;;3.05;;
41653;SDS011;30790;52.030;7.110;2022-07-29T09:37:52;24.92;;;3.28;;
41653;SDS011;30790;52.030;7.110;2022-07-29T09:40:22;16.75;;;3.42;;
41653;SDS011;30790;52.030;7.110;2022-07-29T09:42:50;11.00;;;2.53;;
41653;SDS011;30790;52.030;7.110;2022-07-29T09:45:28;8.85;;;2.63;;
41653;SDS011;30790;52.030;7.110;2022-07-29T09:47:55;6.40;;;2.50;;
41653;SDS011;30790;52.030;7.110;2022-07-29T09:50:34;14.35;;;2.65;;
41653;SDS011;30790;52.030;7.110;2022-07-29T09:53:07;14.50;;;3.10;;
41653;SDS011;30790;52.030;7.110;2022-07-29T09:55:45;18.38;;;2.63;;
41653;SDS011;30790;52.030;7.110;2022-07-29T09:58:17;10.98;;;2.17;;
41653;SDS011;30790;52.030;7.110;2022-07-29T10:00:44;16.92;;;3.00;;
41653;SDS011;30790;52.030;7.110;2022-07-29T10:03:11;15.55;;;3.45;;
41653;SDS011;30790;52.030;7.110;2022-07-29T10:05:37;16.20;;;2.47;;
41653;SDS011;30790;52.030;7.110;2022-07-29T10:08:02;22.58;;;4.22;;
41653;SDS011;30790;52.030;7.110;2022-07-29T10:10:32;13.98;;;3.13;;
41653;SDS011;30790;52.030;7.110;2022-07-29T10:13:07;20.30;;;2.92;;
41653;SDS011;30790;52.030;7.110;2022-07-29T10:15:35;39.22;;;11.10;;
41653;SDS011;30790;52.030;7.110;2022-07-29T10:18:04;31.25;;;7.80;;
41653;SDS011;30790;52.030;7.110;2022-07-29T10:20:31;38.53;;;9.15;;
41653;SDS011;30790;52.030;7.110;2022-07-29T10:22:56;48.38;;;12.73;;
41653;SDS011;30790;52.030;7.110;2022-07-29T10:25:22;30.70;;;9.88;;
41653;SDS011;30790;52.030;7.110;2022-07-29T10:27:49;52.30;;;17.33;;
41653;SDS011;30790;52.030;7.110;2022-07-29T10:30:16;55.38;;;22.58;;
41653;SDS011;30790;52.030;7.110;2022-07-29T10:32:54;55.95;;;20.75;;
41653;SDS011;30790;52.030;7.110;2022-07-29T10:39:05;57.85;;;21.70;;
41653;SDS011;30790;52.030;7.110;2022-07-29T10:42:27;69.25;;;24.83;;
41653;SDS011;30790;52.030;7.110;2022-07-29T10:44:40;65.07;;;28.35;;
41653;SDS011;30790;52.030;7.110;2022-07-29T10:47:06;79.90;;;35.55;;
41653;SDS011;30790;52.030;7.110;2022-07-29T10:49:32;95.40;;;27.63;;
41653;SDS011;30790;52.030;7.110;2022-07-29T10:57:10;82.40;;;34.38;;
41653;SDS011;30790;52.030;7.110;2022-07-29T10:59:45;75.25;;;31.88;;
41653;SDS011;30790;52.030;7.110;2022-07-29T11:07:26;72.20;;;31.25;;
41653;SDS011;30790;52.030;7.110;2022-07-29T11:15:18;35.90;;;14.25;;
41653;SDS011;30790;52.030;7.110;2022-07-29T11:23:21;46.97;;;16.13;;
41653;SDS011;30790;52.030;7.110;2022-07-29T11:31:43;35.25;;;14.60;;
41653;SDS011;30790;52.030;7.110;2022-07-29T11:34:17;31.77;;;14.82;;
41653;SDS011;30790;52.030;7.110;2022-07-29T11:39:34;41.70;;;16.75;;
41653;SDS011;30790;52.030;7.110;2022-07-29T11:47:35;50.30;;;17.88;;
41653;SDS011;30790;52.030;7.110;2022-07-29T11:50:14;50.85;;;17.38;;
41653;SDS011;30790;52.030;7.110;2022-07-29T11:52:45;48.50;;;15.65;;
41653;SDS011;30790;52.030;7.110;2022-07-29T11:55:18;42.85;;;12.85;;
41653;SDS011;30790;52.030;7.110;2022-07-29T11:57:56;39.13;;;15.05;;
41653;SDS011;30790;52.030;7.110;2022-07-29T12:02:50;30.03;;;11.27;;
41653;SDS011;30790;52.030;7.110;2022-07-29T12:05:16;34.22;;;10.20;;
41653;SDS011;30790;52.030;7.110;2022-07-29T12:07:41;30.67;;;11.27;;
41653;SDS011;30790;52.030;7.110;2022-07-29T12:10:07;37.50;;;13.57;;
41653;SDS011;30790;52.030;7.110;2022-07-29T12:12:33;46.15;;;13.60;;
41653;SDS011;30790;52.030;7.110;2022-07-29T12:15:12;34.55;;;12.00;;
41653;SDS011;30790;52.030;7.110;2022-07-29T12:17:39;25.73;;;9.35;;
41653;SDS011;30790;52.030;7.110;2022-07-29T12:20:05;29.20;;;10.18;;
41653;SDS011;30790;52.030;7.110;2022-07-29T12:22:32;34.25;;;9.80;;
41653;SDS011;30790;52.030;7.110;2022-07-29T12:25:06;35.47;;;11.88;;
41653;SDS011;30790;52.030;7.110;2022-07-29T12:27:36;35.30;;;12.55;;
41653;SDS011;30790;52.030;7.110;2022-07-29T12:30:07;35.83;;;13.25;;
41653;SDS011;30790;52.030;7.110;2022-07-29T12:32:44;37.63;;;12.88;;
41653;SDS011;30790;52.030;7.110;2022-07-29T12:35:14;38.67;;;12.43;;
41653;SDS011;30790;52.030;7.110;2022-07-29T12:37:41;29.90;;;11.35;;
41653;SDS011;30790;52.030;7.110;2022-07-29T12:40:09;27.90;;;10.80;;
41653;SDS011;30790;52.030;7.110;2022-07-29T12:42:37;32.78;;;9.95;;
41653;SDS011;30790;52.030;7.110;2022-07-29T12:45:03;17.38;;;4.32;;
41653;SDS011;30790;52.030;7.110;2022-07-29T12:47:29;17.58;;;6.57;;
41653;SDS011;30790;52.030;7.110;2022-07-29T12:50:14;29.52;;;9.07;;
41653;SDS011;30790;52.030;7.110;2022-07-29T12:52:42;24.33;;;9.32;;
41653;SDS011;30790;52.030;7.110;2022-07-29T12:55:08;30.80;;;9.57;;
41653;SDS011;30790;52.030;7.110;2022-07-29T12:57:44;28.50;;;9.05;;
41653;SDS011;30790;52.030;7.110;2022-07-29T13:00:13;32.20;;;9.80;;
41653;SDS011;30790;52.030;7.110;2022-07-29T13:02:40;41.45;;;10.23;;
41653;SDS011;30790;52.030;7.110;2022-07-29T13:05:07;26.58;;;9.35;;
41653;SDS011;30790;52.030;7.110;2022-07-29T13:07:34;30.65;;;10.10;;
41653;SDS011;30790;52.030;7.110;2022-07-29T13:15:26;41.80;;;10.23;;
41653;SDS011;30790;52.030;7.110;2022-07-29T13:17:52;36.72;;;8.80;;
41653;SDS011;30790;52.030;7.110;2022-07-29T13:20:17;33.30;;;9.43;;
41653;SDS011;30790;52.030;7.110;2022-07-29T13:22:43;26.50;;;8.68;;
41653;SDS011;30790;52.030;7.110;2022-07-29T13:25:12;38.88;;;9.05;;
41653;SDS011;30790;52.030;7.110;2022-07-29T13:27:38;24.13;;;9.25;;
41653;SDS011;30790;52.030;7.110;2022-07-29T13:30:05;31.13;;;8.95;;
41653;SDS011;30790;52.030;7.110;2022-07-29T13:32:32;39.10;;;9.57;;
41653;SDS011;30790;52.030;7.110;2022-07-29T13:35:03;38.95;;;9.55;;
41653;SDS011;30790;52.030;7.110;2022-07-29T13:37:29;27.60;;;7.97;;
41653;SDS011;30790;52.030;7.110;2022-07-29T13:39:55;26.17;;;9.02;;
41653;SDS011;30790;52.030;7.110;2022-07-29T13:42:22;22.90;;;7.90;;
41653;SDS011;30790;52.030;7.110;2022-07-29T13:44:48;29.58;;;7.97;;
41653;SDS011;30790;52.030;7.110;2022-07-29T13:47:15;30.02;;;8.52;;
41653;SDS011;30790;52.030;7.110;2022-07-29T13:49:41;28.80;;;7.70;;
41653;SDS011;30790;52.030;7.110;2022-07-29T13:52:06;30.73;;;7.97;;
41653;SDS011;30790;52.030;7.110;2022-07-29T13:54:32;36.33;;;8.88;;
41653;SDS011;30790;52.030;7.110;2022-07-29T13:56:57;41.70;;;9.57;;
41653;SDS011;30790;52.030;7.110;2022-07-29T13:59:22;32.33;;;8.98;;
41653;SDS011;30790;52.030;7.110;2022-07-29T14:01:48;25.92;;;7.13;;
41653;SDS011;30790;52.030;7.110;2022-07-29T14:04:13;38.58;;;7.22;;
41653;SDS011;30790;52.030;7.110;2022-07-29T14:06:39;36.70;;;8.52;;
41653;SDS011;30790;52.030;7.110;2022-07-29T14:09:04;27.15;;;7.45;;
41653;SDS011;30790;52.030;7.110;2022-07-29T14:11:31;35.70;;;8.32;;
41653;SDS011;30790;52.030;7.110;2022-07-29T14:13:57;29.17;;;6.63;;
41653;SDS011;30790;52.030;7.110;2022-07-29T14:16:22;32.63;;;8.57;;
41653;SDS011;30790;52.030;7.110;2022-07-29T14:18:47;25.27;;;6.83;;
41653;SDS011;30790;52.030;7.110;2022-07-29T14:21:12;28.40;;;6.72;;
41653;SDS011;30790;52.030;7.110;2022-07-29T14:23:38;22.58;;;7.18;;
41653;SDS011;30790;52.030;7.110;2022-07-29T14:26:03;19.75;;;6.18;;
41653;SDS011;30790;52.030;7.110;2022-07-29T14:28:28;14.77;;;6.07;;
41653;SDS011;30790;52.030;7.110;2022-07-29T14:30:54;28.13;;;8.02;;
41653;SDS011;30790;52.030;7.110;2022-07-29T14:33:19;31.73;;;7.40;;
41653;SDS011;30790;52.030;7.110;2022-07-29T14:35:44;22.25;;;5.68;;
41653;SDS011;30790;52.030;7.110;2022-07-29T14:38:10;20.50;;;6.25;;
41653;SDS011;30790;52.030;7.110;2022-07-29T14:40:35;20.77;;;6.55;;
41653;SDS011;30790;52.030;7.110;2022-07-29T14:43:01;19.33;;;6.53;;
41653;SDS011;30790;52.030;7.110;2022-07-29T14:45:26;22.13;;;6.10;;
41653;SDS011;30790;52.030;7.110;2022-07-29T14:47:53;18.23;;;5.80;;
41653;SDS011;30790;52.030;7.110;2022-07-29T14:50:18;20.90;;;6.40;;
41653;SDS011;30790;52.030;7.110;2022-07-29T14:52:44;21.33;;;6.18;;
41653;SDS011;30790;52.030;7.110;2022-07-29T14:55:09;16.35;;;5.65;;
41653;SDS011;30790;52.030;7.110;2022-07-29T14:57:34;16.40;;;5.55;;
41653;SDS011;30790;52.030;7.110;2022-07-29T15:00:00;16.48;;;6.15;;
41653;SDS011;30790;52.030;7.110;2022-07-29T15:02:25;18.25;;;5.93;;
41653;SDS011;30790;52.030;7.110;2022-07-29T15:04:51;17.25;;;6.05;;
41653;SDS011;30790;52.030;7.110;2022-07-29T15:07:16;21.85;;;6.10;;
41653;SDS011;30790;52.030;7.110;2022-07-29T15:09:41;13.88;;;5.57;;
41653;SDS011;30790;52.030;7.110;2022-07-29T15:12:07;15.02;;;5.57;;
41653;SDS011;30790;52.030;7.110;2022-07-29T15:14:35;17.25;;;5.13;;
41653;SDS011;30790;52.030;7.110;2022-07-29T15:17:00;14.82;;;5.13;;
41653;SDS011;30790;52.030;7.110;2022-07-29T15:19:25;17.02;;;5.93;;
41653;SDS011;30790;52.030;7.110;2022-07-29T15:21:51;14.80;;;5.25;;
41653;SDS011;30790;52.030;7.110;2022-07-29T15:24:16;16.88;;;5.55;;
41653;SDS011;30790;52.030;7.110;2022-07-29T15:26:42;18.42;;;5.85;;
41653;SDS011;30790;52.030;7.110;2022-07-29T15:29:07;16.50;;;6.00;;
41653;SDS011;30790;52.030;7.110;2022-07-29T15:31:33;17.13;;;5.78;;
41653;SDS011;30790;52.030;7.110;2022-07-29T15:33:58;17.35;;;5.38;;
41653;SDS011;30790;52.030;7.110;2022-07-29T15:36:23;17.35;;;5.53;;
41653;SDS011;30790;52.030;7.110;2022-07-29T15:38:51;11.93;;;5.05;;
41653;SDS011;30790;52.030;7.110;2022-07-29T15:41:18;15.65;;;4.90;;
41653;SDS011;30790;52.030;7.110;2022-07-29T15:43:44;13.32;;;5.38;;
41653;SDS011;30790;52.030;7.110;2022-07-29T15:46:12;15.13;;;5.40;;
41653;SDS011;30790;52.030;7.110;2022-07-29T15:49:00;15.25;;;4.88;;